sensor_id;sensor_type;location;lat;lon;timestamp;pressure;altitude;pressure_sealevel;temperature;humidity
19508;BME280;40157;42.566;27.526;2023-03-22T00:01:15;100825.44;;;11.33;86.82
19508;BME280;40157;42.566;27.526;2023-03-22T00:03:17;100806.78;;;11.16;86.78
19508;BME280;40157;42.566;27.526;2023-03-22T00:05:17;100838.56;;;11.33;86.78
19508;BME280;40157;42.566;27.526;2023-03-22T00:07:17;100798.91;;;11.13;86.95
19508;BME280;40157;42.566;27.526;2023-03-22T00:09:18;100729.16;;;10.70;86.79
19508;BME280;40157;42.566;27.526;2023-03-22T00:11:20;100831.53;;;11.32;87.01
19508;BME280;40157;42.566;27.526;2023-03-22T00:13:21;100755.63;;;10.84;86.86
19508;BME280;40157;42.566;27.526;2023-03-22T00:15:22;100832.41;;;11.32;86.90
19508;BME280;40157;42.566;27.526;2023-03-22T00:17:22;100825.25;;;11.22;87.03
19508;BME280;40157;42.566;27.526;2023-03-22T00:19:25;100830.63;;;11.29;87.08
19508;BME280;40157;42.566;27.526;2023-03-22T00:21:25;100823.50;;;11.19;87.11
19508;BME280;40157;42.566;27.526;2023-03-22T00:23:27;100837.63;;;11.30;87.23
19508;BME280;40157;42.566;27.526;2023-03-22T00:25:28;100770.47;;;10.84;87.20
19508;BME280;40157;42.566;27.526;2023-03-22T00:27:28;100760.81;;;10.81;87.20
19508;BME280;40157;42.566;27.526;2023-03-22T00:29:29;100837.63;;;11.30;87.29
19508;BME280;40157;42.566;27.526;2023-03-22T00:31:30;100799.84;;;11.18;87.17
19508;BME280;40157;42.566;27.526;2023-03-22T00:33:31;100819.03;;;11.15;87.49
19508;BME280;40157;42.566;27.526;2023-03-22T00:35:31;100799.44;;;10.91;87.96
19508;BME280;40157;42.566;27.526;2023-03-22T00:37:32;100802.78;;;10.81;88.92
19508;BME280;40157;42.566;27.526;2023-03-22T00:39:33;100777.03;;;10.59;89.52
19508;BME280;40157;42.566;27.526;2023-03-22T00:41:33;100778.81;;;10.60;90.24
19508;BME280;40157;42.566;27.526;2023-03-22T00:43:34;100757.56;;;10.43;90.39
19508;BME280;40157;42.566;27.526;2023-03-22T00:45:35;100783.84;;;10.47;90.75
19508;BME280;40157;42.566;27.526;2023-03-22T00:47:37;100793.34;;;10.42;91.27
19508;BME280;40157;42.566;27.526;2023-03-22T00:49:38;100811.66;;;10.39;91.73
19508;BME280;40157;42.566;27.526;2023-03-22T00:51:38;100802.88;;;10.37;92.03
19508;BME280;40157;42.566;27.526;2023-03-22T00:53:39;100802.00;;;10.36;92.46
19508;BME280;40157;42.566;27.526;2023-03-22T00:55:40;100764.91;;;10.15;92.80
19508;BME280;40157;42.566;27.526;2023-03-22T00:57:40;100780.75;;;10.23;93.01
19508;BME280;40157;42.566;27.526;2023-03-22T00:59:41;100751.56;;;10.01;93.53
19508;BME280;40157;42.566;27.526;2023-03-22T01:01:42;100774.28;;;10.04;94.26
19508;BME280;40157;42.566;27.526;2023-03-22T01:03:42;100721.25;;;9.68;94.70
19508;BME280;40157;42.566;27.526;2023-03-22T01:05:44;100778.75;;;10.08;95.03
19508;BME280;40157;42.566;27.526;2023-03-22T01:07:45;100763.47;;;9.87;95.36
19508;BME280;40157;42.566;27.526;2023-03-22T01:09:51;100791.81;;;10.06;95.74
19508;BME280;40157;42.566;27.526;2023-03-22T01:11:52;100752.94;;;9.84;95.72
19508;BME280;40157;42.566;27.526;2023-03-22T01:13:53;100799.84;;;10.17;95.71
19508;BME280;40157;42.566;27.526;2023-03-22T01:15:55;100749.63;;;9.92;95.46
19508;BME280;40157;42.566;27.526;2023-03-22T01:17:55;100755.13;;;10.06;95.28
19508;BME280;40157;42.566;27.526;2023-03-22T01:19:56;100772.72;;;10.13;95.14
19508;BME280;40157;42.566;27.526;2023-03-22T01:21:56;100787.09;;;10.34;95.01
19508;BME280;40157;42.566;27.526;2023-03-22T01:23:57;100744.66;;;10.06;95.12
19508;BME280;40157;42.566;27.526;2023-03-22T01:25:57;100741.34;;;10.16;94.90
19508;BME280;40157;42.566;27.526;2023-03-22T01:27:58;100693.59;;;9.82;94.72
19508;BME280;40157;42.566;27.526;2023-03-22T01:29:58;100767.84;;;10.32;94.72
19508;BME280;40157;42.566;27.526;2023-03-22T01:31:59;100772.34;;;10.38;94.69
19508;BME280;40157;42.566;27.526;2023-03-22T01:33:59;100740.50;;;10.19;94.69
19508;BME280;40157;42.566;27.526;2023-03-22T01:36:00;100780.34;;;10.47;94.18
19508;BME280;40157;42.566;27.526;2023-03-22T01:38:00;100742.59;;;10.37;94.19
19508;BME280;40157;42.566;27.526;2023-03-22T01:40:01;100750.56;;;10.43;94.11
19508;BME280;40157;42.566;27.526;2023-03-22T01:42:02;100755.84;;;10.45;93.84
19508;BME280;40157;42.566;27.526;2023-03-22T01:44:19;100774.28;;;10.49;93.76
19508;BME280;40157;42.566;27.526;2023-03-22T01:46:20;100773.56;;;10.60;93.25
19508;BME280;40157;42.566;27.526;2023-03-22T01:48:30;100786.81;;;10.69;93.07
19508;BME280;40157;42.566;27.526;2023-03-22T01:50:37;100779.88;;;10.71;92.85
19508;BME280;40157;42.566;27.526;2023-03-22T01:52:39;100774.66;;;10.71;92.80
19508;BME280;40157;42.566;27.526;2023-03-22T01:54:43;100764.88;;;10.64;92.59
19508;BME280;40157;42.566;27.526;2023-03-22T01:56:44;100765.78;;;10.64;92.38
19508;BME280;40157;42.566;27.526;2023-03-22T01:58:45;100761.53;;;10.71;91.96
19508;BME280;40157;42.566;27.526;2023-03-22T02:00:49;100764.13;;;10.69;92.19
19508;BME280;40157;42.566;27.526;2023-03-22T02:02:51;100779.97;;;10.77;92.05
19508;BME280;40157;42.566;27.526;2023-03-22T02:04:52;100783.53;;;10.79;91.95
19508;BME280;40157;42.566;27.526;2023-03-22T02:06:57;100743.06;;;10.65;91.74
19508;BME280;40157;42.566;27.526;2023-03-22T02:08:58;100689.38;;;10.40;91.65
19508;BME280;40157;42.566;27.526;2023-03-22T02:11:00;100773.97;;;10.84;91.54
19508;BME280;40157;42.566;27.526;2023-03-22T02:15:27;100752.84;;;10.75;91.42
19508;BME280;40157;42.566;27.526;2023-03-22T02:29:24;100783.41;;;10.73;91.58
19508;BME280;40157;42.566;27.526;2023-03-22T02:40:47;100776.84;;;10.46;92.70
19508;BME280;40157;42.566;27.526;2023-03-22T02:43:17;100772.34;;;10.41;93.17
19508;BME280;40157;42.566;27.526;2023-03-22T02:45:25;100763.53;;;10.35;93.26
19508;BME280;40157;42.566;27.526;2023-03-22T02:47:41;100766.19;;;10.37;93.52
19508;BME280;40157;42.566;27.526;2023-03-22T02:49:55;100685.97;;;9.95;93.62
19508;BME280;40157;42.566;27.526;2023-03-22T02:52:02;100734.50;;;10.25;93.56
19508;BME280;40157;42.566;27.526;2023-03-22T02:54:19;100755.75;;;10.40;93.79
19508;BME280;40157;42.566;27.526;2023-03-22T02:56:28;100739.81;;;10.28;93.88
19508;BME280;40157;42.566;27.526;2023-03-22T02:58:37;100739.81;;;10.28;94.08
19508;BME280;40157;42.566;27.526;2023-03-22T03:00:40;100737.81;;;10.14;94.37
19508;BME280;40157;42.566;27.526;2023-03-22T03:02:46;100735.13;;;10.10;94.83
19508;BME280;40157;42.566;27.526;2023-03-22T03:04:49;100660.97;;;9.65;94.90
19508;BME280;40157;42.566;27.526;2023-03-22T03:06:54;100707.75;;;9.94;95.15
19508;BME280;40157;42.566;27.526;2023-03-22T03:08:57;100703.44;;;9.96;95.15
19508;BME280;40157;42.566;27.526;2023-03-22T03:11:01;100736.94;;;10.15;95.09
19508;BME280;40157;42.566;27.526;2023-03-22T03:13:02;100732.66;;;10.17;95.17
19508;BME280;40157;42.566;27.526;2023-03-22T03:15:10;100742.19;;;10.15;95.23
19508;BME280;40157;42.566;27.526;2023-03-22T03:20:18;100729.75;;;10.04;95.42
19508;BME280;40157;42.566;27.526;2023-03-22T03:26:34;100735.88;;;10.04;96.12
19508;BME280;40157;42.566;27.526;2023-03-22T03:30:54;100719.16;;;9.97;96.17
19508;BME280;40157;42.566;27.526;2023-03-22T03:33:07;100720.31;;;10.12;96.18
19508;BME280;40157;42.566;27.526;2023-03-22T03:37:45;100715.97;;;10.14;96.07
19508;BME280;40157;42.566;27.526;2023-03-22T03:39:55;100713.25;;;10.08;96.07
19508;BME280;40157;42.566;27.526;2023-03-22T03:41:58;100669.22;;;9.87;95.76
19508;BME280;40157;42.566;27.526;2023-03-22T03:44:00;100719.50;;;10.14;95.92
19508;BME280;40157;42.566;27.526;2023-03-22T03:46:02;100631.31;;;9.65;95.70
19508;BME280;40157;42.566;27.526;2023-03-22T03:48:08;100720.44;;;10.19;95.44
19508;BME280;40157;42.566;27.526;2023-03-22T03:50:12;100714.47;;;10.28;95.43
19508;BME280;40157;42.566;27.526;2023-03-22T03:52:14;100722.31;;;10.27;94.98
19508;BME280;40157;42.566;27.526;2023-03-22T03:54:15;100689.72;;;10.09;95.08
19508;BME280;40157;42.566;27.526;2023-03-22T03:56:15;100674.63;;;9.96;95.05
19508;BME280;40157;42.566;27.526;2023-03-22T03:58:16;100694.84;;;10.03;95.37
19508;BME280;40157;42.566;27.526;2023-03-22T04:00:17;100715.00;;;10.09;95.62
19508;BME280;40157;42.566;27.526;2023-03-22T04:02:18;100700.81;;;9.96;95.82
19508;BME280;40157;42.566;27.526;2023-03-22T04:04:25;100690.22;;;9.90;96.10
19508;BME280;40157;42.566;27.526;2023-03-22T04:06:25;100692.00;;;9.92;96.21
19508;BME280;40157;42.566;27.526;2023-03-22T04:08:26;100695.47;;;9.90;96.25
19508;BME280;40157;42.566;27.526;2023-03-22T04:10:26;100676.94;;;9.80;96.12
19508;BME280;40157;42.566;27.526;2023-03-22T04:12:27;100707.88;;;10.00;96.21
19508;BME280;40157;42.566;27.526;2023-03-22T04:14:28;100716.69;;;10.05;96.09
19508;BME280;40157;42.566;27.526;2023-03-22T04:16:28;100633.59;;;9.49;96.24
19508;BME280;40157;42.566;27.526;2023-03-22T04:18:29;100731.50;;;10.03;96.35
19508;BME280;40157;42.566;27.526;2023-03-22T04:20:29;100690.22;;;9.90;96.53
19508;BME280;40157;42.566;27.526;2023-03-22T04:22:30;100718.47;;;10.06;96.60
19508;BME280;40157;42.566;27.526;2023-03-22T04:24:33;100723.78;;;10.12;96.40
19508;BME280;40157;42.566;27.526;2023-03-22T04:26:34;100660.19;;;9.69;96.27
19508;BME280;40157;42.566;27.526;2023-03-22T04:28:34;100707.75;;;9.94;96.37
19508;BME280;40157;42.566;27.526;2023-03-22T04:30:35;100743.97;;;10.16;96.22
19508;BME280;40157;42.566;27.526;2023-03-22T04:32:36;100730.75;;;10.10;96.10
19508;BME280;40157;42.566;27.526;2023-03-22T04:34:36;100721.13;;;10.08;96.11
19508;BME280;40157;42.566;27.526;2023-03-22T04:36:37;100731.78;;;10.18;95.83
19508;BME280;40157;42.566;27.526;2023-03-22T04:38:41;100732.69;;;10.22;95.54
19508;BME280;40157;42.566;27.526;2023-03-22T04:40:41;100752.97;;;10.31;95.55
19508;BME280;40157;42.566;27.526;2023-03-22T04:42:45;100727.34;;;10.14;95.07
19508;BME280;40157;42.566;27.526;2023-03-22T04:44:46;100750.53;;;10.40;95.16
19508;BME280;40157;42.566;27.526;2023-03-22T04:46:46;100745.09;;;10.31;94.81
19508;BME280;40157;42.566;27.526;2023-03-22T04:48:47;100751.22;;;10.31;94.92
19508;BME280;40157;42.566;27.526;2023-03-22T04:50:47;100762.44;;;10.26;94.91
19508;BME280;40157;42.566;27.526;2023-03-22T04:52:48;100759.78;;;10.21;95.00
19508;BME280;40157;42.566;27.526;2023-03-22T04:54:49;100756.28;;;10.22;95.19
19508;BME280;40157;42.566;27.526;2023-03-22T04:56:50;100794.19;;;10.38;95.32
19508;BME280;40157;42.566;27.526;2023-03-22T04:58:50;100741.16;;;10.07;95.29
19508;BME280;40157;42.566;27.526;2023-03-22T05:00:52;100724.41;;;9.99;95.14
19508;BME280;40157;42.566;27.526;2023-03-22T05:02:53;100768.47;;;10.20;95.59
19508;BME280;40157;42.566;27.526;2023-03-22T05:04:53;100790.31;;;10.21;95.71
19508;BME280;40157;42.566;27.526;2023-03-22T05:06:54;100783.63;;;10.35;97.76
19508;BME280;40157;42.566;27.526;2023-03-22T05:08:54;100713.44;;;10.18;99.63
19508;BME280;40157;42.566;27.526;2023-03-22T05:10:57;100804.59;;;10.87;100.00
19508;BME280;40157;42.566;27.526;2023-03-22T05:12:58;100804.56;;;10.85;99.82
19508;BME280;40157;42.566;27.526;2023-03-22T05:14:58;100814.38;;;10.97;99.48
19508;BME280;40157;42.566;27.526;2023-03-22T05:17:00;100780.22;;;10.91;98.81
19508;BME280;40157;42.566;27.526;2023-03-22T05:19:01;100798.66;;;10.99;97.86
19508;BME280;40157;42.566;27.526;2023-03-22T05:21:02;100826.97;;;11.18;96.89
19508;BME280;40157;42.566;27.526;2023-03-22T05:23:03;100772.38;;;10.96;96.12
19508;BME280;40157;42.566;27.526;2023-03-22T05:25:05;100840.47;;;11.44;95.06
19508;BME280;40157;42.566;27.526;2023-03-22T05:27:06;100854.59;;;11.51;94.59
19508;BME280;40157;42.566;27.526;2023-03-22T05:29:07;100834.44;;;11.52;93.81
19508;BME280;40157;42.566;27.526;2023-03-22T05:31:09;100850.38;;;11.65;93.31
19508;BME280;40157;42.566;27.526;2023-03-22T05:33:10;100838.09;;;11.61;93.15
19508;BME280;40157;42.566;27.526;2023-03-22T05:35:11;100821.47;;;11.61;92.85
19508;BME280;40157;42.566;27.526;2023-03-22T05:37:12;100832.97;;;11.74;92.13
19508;BME280;40157;42.566;27.526;2023-03-22T05:39:12;100824.31;;;11.78;91.10
19508;BME280;40157;42.566;27.526;2023-03-22T05:41:15;100798.69;;;11.61;90.44
19508;BME280;40157;42.566;27.526;2023-03-22T05:43:15;100839.34;;;11.90;90.09
19508;BME280;40157;42.566;27.526;2023-03-22T05:45:17;100817.31;;;11.80;89.53
19508;BME280;40157;42.566;27.526;2023-03-22T05:47:17;100861.56;;;12.15;89.18
19508;BME280;40157;42.566;27.526;2023-03-22T05:49:18;100858.97;;;12.18;88.76
19508;BME280;40157;42.566;27.526;2023-03-22T05:51:18;100857.22;;;12.18;88.59
19508;BME280;40157;42.566;27.526;2023-03-22T05:53:19;100791.13;;;11.86;88.30
19508;BME280;40157;42.566;27.526;2023-03-22T05:55:19;100821.22;;;12.10;88.24
19508;BME280;40157;42.566;27.526;2023-03-22T05:57:21;100843.28;;;12.24;88.44
19508;BME280;40157;42.566;27.526;2023-03-22T05:59:21;100850.31;;;12.28;88.21
19508;BME280;40157;42.566;27.526;2023-03-22T06:01:22;100863.53;;;12.34;87.96
19508;BME280;40157;42.566;27.526;2023-03-22T06:03:24;100830.06;;;12.18;87.71
19508;BME280;40157;42.566;27.526;2023-03-22T06:05:25;100867.09;;;12.39;87.50
19508;BME280;40157;42.566;27.526;2023-03-22T06:07:25;100827.50;;;12.26;87.26
19508;BME280;40157;42.566;27.526;2023-03-22T06:09:26;100890.13;;;12.59;86.99
19508;BME280;40157;42.566;27.526;2023-03-22T06:11:26;100870.78;;;12.57;88.09
19508;BME280;40157;42.566;27.526;2023-03-22T06:13:27;100876.19;;;12.69;89.78
19508;BME280;40157;42.566;27.526;2023-03-22T06:15:27;100865.69;;;12.75;89.21
19508;BME280;40157;42.566;27.526;2023-03-22T06:17:28;100862.22;;;12.76;88.38
19508;BME280;40157;42.566;27.526;2023-03-22T06:19:29;100880.78;;;12.95;87.58
19508;BME280;40157;42.566;27.526;2023-03-22T06:21:30;100888.69;;;12.93;86.58
19508;BME280;40157;42.566;27.526;2023-03-22T06:23:30;100841.06;;;12.64;85.75
19508;BME280;40157;42.566;27.526;2023-03-22T06:25:31;100896.59;;;12.96;84.91
19508;BME280;40157;42.566;27.526;2023-03-22T06:27:32;100906.25;;;12.96;84.39
19508;BME280;40157;42.566;27.526;2023-03-22T06:29:32;100914.22;;;13.05;83.92
19508;BME280;40157;42.566;27.526;2023-03-22T06:31:33;100907.13;;;12.96;83.17
19508;BME280;40157;42.566;27.526;2023-03-22T06:33:34;100907.97;;;12.91;82.91
19508;BME280;40157;42.566;27.526;2023-03-22T06:35:35;100917.59;;;12.90;82.35
19508;BME280;40157;42.566;27.526;2023-03-22T06:37:35;100912.28;;;12.84;82.35
19508;BME280;40157;42.566;27.526;2023-03-22T06:39:36;100905.19;;;12.78;82.33
19508;BME280;40157;42.566;27.526;2023-03-22T06:41:36;100913.84;;;12.65;82.29
19508;BME280;40157;42.566;27.526;2023-03-22T06:43:37;100920.78;;;12.60;82.31
19508;BME280;40157;42.566;27.526;2023-03-22T06:45:37;100906.66;;;12.50;82.36
19508;BME280;40157;42.566;27.526;2023-03-22T06:47:38;100897.59;;;12.25;82.46
19508;BME280;40157;42.566;27.526;2023-03-22T06:49:38;100903.75;;;12.27;82.18
19508;BME280;40157;42.566;27.526;2023-03-22T06:51:39;100917.72;;;12.21;82.36
19508;BME280;40157;42.566;27.526;2023-03-22T06:53:39;100892.97;;;12.04;82.02
19508;BME280;40157;42.566;27.526;2023-03-22T06:55:40;100954.69;;;12.35;82.45
19508;BME280;40157;42.566;27.526;2023-03-22T06:57:40;100942.06;;;12.08;82.47
19508;BME280;40157;42.566;27.526;2023-03-22T06:59:41;100934.03;;;11.96;83.04
19508;BME280;40157;42.566;27.526;2023-03-22T07:01:41;100956.09;;;12.09;83.40
19508;BME280;40157;42.566;27.526;2023-03-22T07:03:42;100959.66;;;12.14;83.59
19508;BME280;40157;42.566;27.526;2023-03-22T07:05:42;100962.34;;;12.18;83.47
19508;BME280;40157;42.566;27.526;2023-03-22T07:07:43;100959.72;;;12.17;83.62
19508;BME280;40157;42.566;27.526;2023-03-22T07:09:43;100948.22;;;12.09;83.57
19508;BME280;40157;42.566;27.526;2023-03-22T07:11:43;100940.31;;;12.09;83.61
19508;BME280;40157;42.566;27.526;2023-03-22T07:13:44;100971.16;;;12.22;83.25
19508;BME280;40157;42.566;27.526;2023-03-22T07:15:44;100962.97;;;12.00;84.10
19508;BME280;40157;42.566;27.526;2023-03-22T07:17:45;100977.94;;;12.03;84.75
19508;BME280;40157;42.566;27.526;2023-03-22T07:19:45;100991.88;;;11.97;85.47
19508;BME280;40157;42.566;27.526;2023-03-22T07:21:46;100991.84;;;11.96;85.67
19508;BME280;40157;42.566;27.526;2023-03-22T07:23:46;100992.50;;;11.84;86.18
19508;BME280;40157;42.566;27.526;2023-03-22T07:25:47;100996.91;;;11.87;86.47
19508;BME280;40157;42.566;27.526;2023-03-22T07:27:48;101001.34;;;11.89;86.80
19508;BME280;40157;42.566;27.526;2023-03-22T07:29:48;100980.19;;;11.80;87.11
19508;BME280;40157;42.566;27.526;2023-03-22T07:31:49;101005.66;;;11.85;87.27
19508;BME280;40157;42.566;27.526;2023-03-22T07:33:49;100956.22;;;11.58;87.50
19508;BME280;40157;42.566;27.526;2023-03-22T07:35:51;100971.16;;;11.62;87.78
19508;BME280;40157;42.566;27.526;2023-03-22T07:37:51;100973.69;;;11.56;88.08
19508;BME280;40157;42.566;27.526;2023-03-22T07:39:52;100936.50;;;11.30;88.34
19508;BME280;40157;42.566;27.526;2023-03-22T07:41:53;100981.47;;;11.52;88.64
19508;BME280;40157;42.566;27.526;2023-03-22T07:43:53;100985.03;;;11.55;89.04
19508;BME280;40157;42.566;27.526;2023-03-22T07:45:54;100935.63;;;11.29;89.07
19508;BME280;40157;42.566;27.526;2023-03-22T07:47:55;101003.59;;;11.64;89.69
19508;BME280;40157;42.566;27.526;2023-03-22T07:49:55;101022.81;;;11.63;89.97
19508;BME280;40157;42.566;27.526;2023-03-22T07:51:56;101018.44;;;11.62;90.61
19508;BME280;40157;42.566;27.526;2023-03-22T07:53:56;101008.63;;;11.54;91.23
19508;BME280;40157;42.566;27.526;2023-03-22T07:55:57;101000.59;;;11.43;91.08
19508;BME280;40157;42.566;27.526;2023-03-22T07:57:57;100986.50;;;11.38;91.39
19508;BME280;40157;42.566;27.526;2023-03-22T07:59:58;100998.00;;;11.44;91.36
19508;BME280;40157;42.566;27.526;2023-03-22T08:01:58;100974.13;;;11.30;91.38
19508;BME280;40157;42.566;27.526;2023-03-22T08:03:59;100979.47;;;11.37;91.15
19508;BME280;40157;42.566;27.526;2023-03-22T08:06:01;100991.75;;;11.38;90.84
19508;BME280;40157;42.566;27.526;2023-03-22T08:08:06;101014.06;;;11.63;90.84
19508;BME280;40157;42.566;27.526;2023-03-22T08:10:07;101015.78;;;11.61;90.57
19508;BME280;40157;42.566;27.526;2023-03-22T08:12:07;100971.50;;;11.30;90.46
19508;BME280;40157;42.566;27.526;2023-03-22T08:14:08;101024.56;;;11.63;90.63
19508;BME280;40157;42.566;27.526;2023-03-22T08:16:09;100963.53;;;11.24;90.66
19508;BME280;40157;42.566;27.526;2023-03-22T08:18:09;101021.84;;;11.58;90.41
19508;BME280;40157;42.566;27.526;2023-03-22T08:20:10;101017.38;;;11.51;90.06
19508;BME280;40157;42.566;27.526;2023-03-22T08:22:12;101018.06;;;11.41;90.17
19508;BME280;40157;42.566;27.526;2023-03-22T08:24:14;100995.03;;;11.24;89.50
19508;BME280;40157;42.566;27.526;2023-03-22T08:26:15;100993.13;;;11.17;89.67
19508;BME280;40157;42.566;27.526;2023-03-22T08:28:17;101029.19;;;11.26;89.52
19508;BME280;40157;42.566;27.526;2023-03-22T08:30:17;101000.88;;;11.09;89.53
19508;BME280;40157;42.566;27.526;2023-03-22T08:32:18;101001.81;;;11.13;89.69
19508;BME280;40157;42.566;27.526;2023-03-22T08:34:19;100970.88;;;10.95;89.58
19508;BME280;40157;42.566;27.526;2023-03-22T08:36:20;101007.06;;;11.13;90.07
19508;BME280;40157;42.566;27.526;2023-03-22T08:38:23;100960.03;;;10.77;89.54
19508;BME280;40157;42.566;27.526;2023-03-22T08:40:24;101028.25;;;11.24;89.77
19508;BME280;40157;42.566;27.526;2023-03-22T08:42:25;100999.97;;;11.09;89.93
19508;BME280;40157;42.566;27.526;2023-03-22T08:44:25;101003.53;;;11.11;89.71
19508;BME280;40157;42.566;27.526;2023-03-22T08:46:26;101025.63;;;11.24;89.83
19508;BME280;40157;42.566;27.526;2023-03-22T08:48:26;101035.38;;;11.29;89.69
19508;BME280;40157;42.566;27.526;2023-03-22T08:50:29;101038.94;;;11.35;89.52
19508;BME280;40157;42.566;27.526;2023-03-22T08:52:29;101000.94;;;11.13;89.25
19508;BME280;40157;42.566;27.526;2023-03-22T08:54:30;101067.00;;;11.39;88.43
19508;BME280;40157;42.566;27.526;2023-03-22T08:56:32;101001.59;;;11.01;87.79
19508;BME280;40157;42.566;27.526;2023-03-22T08:58:36;101041.38;;;11.24;87.82
19508;BME280;40157;42.566;27.526;2023-03-22T09:00:36;101049.31;;;11.27;87.70
19508;BME280;40157;42.566;27.526;2023-03-22T09:02:38;101053.84;;;11.37;88.58
19508;BME280;40157;42.566;27.526;2023-03-22T09:04:38;101063.47;;;11.37;88.06
19508;BME280;40157;42.566;27.526;2023-03-22T09:06:39;101072.50;;;11.51;88.03
19508;BME280;40157;42.566;27.526;2023-03-22T09:08:42;101055.75;;;11.44;87.65
19508;BME280;40157;42.566;27.526;2023-03-22T09:10:42;101005.34;;;11.15;87.15
19508;BME280;40157;42.566;27.526;2023-03-22T09:12:43;101036.41;;;11.39;87.45
19508;BME280;40157;42.566;27.526;2023-03-22T09:14:43;101047.13;;;11.52;87.61
19508;BME280;40157;42.566;27.526;2023-03-22T09:16:46;101074.50;;;11.64;86.80
19508;BME280;40157;42.566;27.526;2023-03-22T09:18:47;101062.03;;;11.53;85.66
19508;BME280;40157;42.566;27.526;2023-03-22T09:20:47;101058.63;;;11.58;85.98
19508;BME280;40157;42.566;27.526;2023-03-22T09:22:48;101050.59;;;11.51;85.81
19508;BME280;40157;42.566;27.526;2023-03-22T09:24:48;101072.50;;;11.51;84.74
19508;BME280;40157;42.566;27.526;2023-03-22T09:26:49;101040.75;;;11.39;84.65
19508;BME280;40157;42.566;27.526;2023-03-22T09:28:50;101031.97;;;11.37;85.18
19508;BME280;40157;42.566;27.526;2023-03-22T09:30:50;101046.31;;;11.54;85.15
19508;BME280;40157;42.566;27.526;2023-03-22T09:32:51;101027.63;;;11.39;85.01
19508;BME280;40157;42.566;27.526;2023-03-22T09:34:51;101062.16;;;11.60;84.48
19508;BME280;40157;42.566;27.526;2023-03-22T09:36:52;101077.97;;;11.63;84.17
19508;BME280;40157;42.566;27.526;2023-03-22T09:38:52;101073.66;;;11.67;84.36
19508;BME280;40157;42.566;27.526;2023-03-22T09:40:58;101041.84;;;11.50;85.28
19508;BME280;40157;42.566;27.526;2023-03-22T09:43:03;101071.16;;;11.75;84.77
19508;BME280;40157;42.566;27.526;2023-03-22T09:45:09;101077.31;;;11.77;84.50
19508;BME280;40157;42.566;27.526;2023-03-22T09:47:29;101069.41;;;11.75;84.56
19508;BME280;40157;42.566;27.526;2023-03-22T09:49:37;101047.34;;;11.65;84.22
19508;BME280;40157;42.566;27.526;2023-03-22T09:51:44;101066.88;;;11.80;84.28
19508;BME280;40157;42.566;27.526;2023-03-22T09:53:45;101026.28;;;11.61;84.13
19508;BME280;40157;42.566;27.526;2023-03-22T09:55:57;101058.94;;;11.77;84.28
19508;BME280;40157;42.566;27.526;2023-03-22T10:04:50;101066.25;;;11.93;84.01
19508;BME280;40157;42.566;27.526;2023-03-22T10:07:04;101041.44;;;11.79;83.86
19508;BME280;40157;42.566;27.526;2023-03-22T10:11:30;101040.63;;;11.81;83.89
19508;BME280;40157;42.566;27.526;2023-03-22T10:13:56;101040.66;;;11.83;83.86
19508;BME280;40157;42.566;27.526;2023-03-22T10:16:05;101038.06;;;11.84;83.29
19508;BME280;40157;42.566;27.526;2023-03-22T10:18:34;101060.97;;;11.93;83.20
19508;BME280;40157;42.566;27.526;2023-03-22T10:21:00;101041.41;;;11.76;83.45
19508;BME280;40157;42.566;27.526;2023-03-22T10:23:04;101060.72;;;11.79;83.45
19508;BME280;40157;42.566;27.526;2023-03-22T10:25:06;101048.38;;;11.74;83.27
19508;BME280;40157;42.566;27.526;2023-03-22T10:27:16;101016.59;;;11.58;82.38
19508;BME280;40157;42.566;27.526;2023-03-22T10:29:31;101047.53;;;11.75;82.21
19508;BME280;40157;42.566;27.526;2023-03-22T10:31:33;101046.56;;;11.70;82.74
19508;BME280;40157;42.566;27.526;2023-03-22T10:33:39;101032.41;;;11.61;82.58
19508;BME280;40157;42.566;27.526;2023-03-22T10:35:50;101044.72;;;11.65;82.85
19508;BME280;40157;42.566;27.526;2023-03-22T10:37:52;101045.66;;;11.68;83.38
19508;BME280;40157;42.566;27.526;2023-03-22T10:39:54;101051.88;;;11.73;83.02
19508;BME280;40157;42.566;27.526;2023-03-22T10:42:01;101042.97;;;11.64;83.15
19508;BME280;40157;42.566;27.526;2023-03-22T10:44:03;101013.88;;;11.52;82.97
19508;BME280;40157;42.566;27.526;2023-03-22T10:46:08;101016.59;;;11.58;82.97
19508;BME280;40157;42.566;27.526;2023-03-22T10:48:43;101035.19;;;11.71;82.42
19508;BME280;40157;42.566;27.526;2023-03-22T10:50:44;101020.94;;;11.56;81.89
19508;BME280;40157;42.566;27.526;2023-03-22T10:54:45;100994.41;;;11.39;81.64
19508;BME280;40157;42.566;27.526;2023-03-22T10:56:46;101038.59;;;11.65;82.03
19508;BME280;40157;42.566;27.526;2023-03-22T10:58:48;101034.19;;;11.62;82.01
19508;BME280;40157;42.566;27.526;2023-03-22T11:00:54;101030.56;;;11.54;82.12
19508;BME280;40157;42.566;27.526;2023-03-22T11:02:59;101014.56;;;11.42;82.75
19508;BME280;40157;42.566;27.526;2023-03-22T11:05:02;101029.69;;;11.55;83.12
19508;BME280;40157;42.566;27.526;2023-03-22T11:07:03;101010.28;;;11.47;83.79
19508;BME280;40157;42.566;27.526;2023-03-22T11:09:21;101021.84;;;11.58;84.50
19508;BME280;40157;42.566;27.526;2023-03-22T11:13:24;101018.41;;;11.61;84.83
19508;BME280;40157;42.566;27.526;2023-03-22T11:15:29;101017.59;;;11.65;85.08
19508;BME280;40157;42.566;27.526;2023-03-22T11:17:31;101005.31;;;11.62;85.42
19508;BME280;40157;42.566;27.526;2023-03-22T11:19:40;101026.63;;;11.81;86.01
19508;BME280;40157;42.566;27.526;2023-03-22T11:21:41;101020.53;;;11.85;86.42